sensor_id;sensor_type;location;lat;lon;timestamp;P1;durP1;ratioP1;P2;durP2;ratioP2
3601;SDS011;1815;50.950;6.920;2023-01-19T00:01:54;5.10;;;3.53;;
3601;SDS011;1815;50.950;6.920;2023-01-19T00:04:20;5.20;;;3.67;;
3601;SDS011;1815;50.950;6.920;2023-01-19T00:06:46;4.97;;;3.30;;
3601;SDS011;1815;50.950;6.920;2023-01-19T00:09:11;4.50;;;2.73;;
3601;SDS011;1815;50.950;6.920;2023-01-19T00:11:37;3.50;;;3.00;;
3601;SDS011;1815;50.950;6.920;2023-01-19T00:14:03;4.30;;;3.00;;
3601;SDS011;1815;50.950;6.920;2023-01-19T00:16:29;5.73;;;3.20;;
3601;SDS011;1815;50.950;6.920;2023-01-19T00:18:54;5.83;;;3.67;;
3601;SDS011;1815;50.950;6.920;2023-01-19T00:21:20;4.40;;;3.73;;
3601;SDS011;1815;50.950;6.920;2023-01-19T00:23:46;3.47;;;2.40;;
3601;SDS011;1815;50.950;6.920;2023-01-19T00:26:13;4.43;;;3.00;;
3601;SDS011;1815;50.950;6.920;2023-01-19T00:28:40;7.35;;;3.28;;
3601;SDS011;1815;50.950;6.920;2023-01-19T00:31:07;5.55;;;3.80;;
3601;SDS011;1815;50.950;6.920;2023-01-19T00:33:33;4.80;;;2.93;;
3601;SDS011;1815;50.950;6.920;2023-01-19T00:35:58;3.33;;;2.53;;
3601;SDS011;1815;50.950;6.920;2023-01-19T00:38:24;5.10;;;3.20;;
3601;SDS011;1815;50.950;6.920;2023-01-19T00:40:50;4.40;;;3.30;;
3601;SDS011;1815;50.950;6.920;2023-01-19T00:43:15;4.40;;;2.30;;
3601;SDS011;1815;50.950;6.920;2023-01-19T00:45:42;5.07;;;3.20;;
3601;SDS011;1815;50.950;6.920;2023-01-19T00:48:09;5.07;;;3.20;;
3601;SDS011;1815;50.950;6.920;2023-01-19T00:50:35;5.13;;;3.33;;
3601;SDS011;1815;50.950;6.920;2023-01-19T00:53:01;3.57;;;2.47;;
3601;SDS011;1815;50.950;6.920;2023-01-19T00:55:27;3.90;;;3.42;;
3601;SDS011;1815;50.950;6.920;2023-01-19T00:57:54;3.83;;;2.80;;
3601;SDS011;1815;50.950;6.920;2023-01-19T01:00:20;3.87;;;2.43;;
3601;SDS011;1815;50.950;6.920;2023-01-19T01:02:47;3.42;;;2.47;;
3601;SDS011;1815;50.950;6.920;2023-01-19T01:05:15;5.88;;;2.75;;
3601;SDS011;1815;50.950;6.920;2023-01-19T01:07:41;3.05;;;2.75;;
3601;SDS011;1815;50.950;6.920;2023-01-19T01:12:38;3.63;;;2.78;;
3601;SDS011;1815;50.950;6.920;2023-01-19T01:15:04;3.20;;;2.90;;
3601;SDS011;1815;50.950;6.920;2023-01-19T01:17:31;2.72;;;2.30;;
3601;SDS011;1815;50.950;6.920;2023-01-19T01:19:57;4.90;;;2.97;;
3601;SDS011;1815;50.950;6.920;2023-01-19T01:22:23;3.40;;;2.33;;
3601;SDS011;1815;50.950;6.920;2023-01-19T01:24:49;4.60;;;2.90;;
3601;SDS011;1815;50.950;6.920;2023-01-19T01:27:14;3.50;;;2.50;;
3601;SDS011;1815;50.950;6.920;2023-01-19T01:29:40;5.40;;;2.90;;
3601;SDS011;1815;50.950;6.920;2023-01-19T01:32:14;3.15;;;2.33;;
3601;SDS011;1815;50.950;6.920;2023-01-19T01:34:41;2.78;;;2.20;;
3601;SDS011;1815;50.950;6.920;2023-01-19T01:37:07;2.42;;;2.03;;
3601;SDS011;1815;50.950;6.920;2023-01-19T01:39:35;3.00;;;1.60;;
3601;SDS011;1815;50.950;6.920;2023-01-19T01:42:02;2.78;;;2.20;;
3601;SDS011;1815;50.950;6.920;2023-01-19T01:44:44;4.05;;;2.55;;
3601;SDS011;1815;50.950;6.920;2023-01-19T01:47:26;3.45;;;1.85;;
3601;SDS011;1815;50.950;6.920;2023-01-19T01:50:09;3.17;;;2.10;;
3601;SDS011;1815;50.950;6.920;2023-01-19T01:52:49;3.60;;;1.73;;
3601;SDS011;1815;50.950;6.920;2023-01-19T01:55:40;3.47;;;2.30;;
3601;SDS011;1815;50.950;6.920;2023-01-19T01:58:10;2.83;;;1.88;;
3601;SDS011;1815;50.950;6.920;2023-01-19T02:00:37;2.72;;;2.08;;
3601;SDS011;1815;50.950;6.920;2023-01-19T02:03:22;4.72;;;2.60;;
3601;SDS011;1815;50.950;6.920;2023-01-19T02:05:50;3.05;;;1.80;;
3601;SDS011;1815;50.950;6.920;2023-01-19T02:08:38;4.90;;;1.50;;
3601;SDS011;1815;50.950;6.920;2023-01-19T02:11:28;2.35;;;1.70;;
3601;SDS011;1815;50.950;6.920;2023-01-19T02:14:14;2.25;;;1.80;;
3601;SDS011;1815;50.950;6.920;2023-01-19T02:16:40;2.97;;;2.03;;
3601;SDS011;1815;50.950;6.920;2023-01-19T02:19:07;3.80;;;1.80;;
3601;SDS011;1815;50.950;6.920;2023-01-19T02:21:53;3.38;;;1.98;;
3601;SDS011;1815;50.950;6.920;2023-01-19T02:24:39;2.20;;;1.85;;
3601;SDS011;1815;50.950;6.920;2023-01-19T02:27:05;3.38;;;1.88;;
3601;SDS011;1815;50.950;6.920;2023-01-19T02:29:32;2.60;;;2.00;;
3601;SDS011;1815;50.950;6.920;2023-01-19T02:31:59;2.63;;;2.42;;
3601;SDS011;1815;50.950;6.920;2023-01-19T02:34:26;3.38;;;2.38;;
3601;SDS011;1815;50.950;6.920;2023-01-19T02:37:00;2.35;;;1.70;;
3601;SDS011;1815;50.950;6.920;2023-01-19T02:39:35;2.80;;;1.85;;
3601;SDS011;1815;50.950;6.920;2023-01-19T02:42:04;4.72;;;2.03;;
3601;SDS011;1815;50.950;6.920;2023-01-19T02:44:33;4.15;;;2.72;;
3601;SDS011;1815;50.950;6.920;2023-01-19T02:47:01;6.13;;;2.42;;
3601;SDS011;1815;50.950;6.920;2023-01-19T02:49:28;3.22;;;2.20;;
3601;SDS011;1815;50.950;6.920;2023-01-19T02:51:54;3.45;;;2.60;;
3601;SDS011;1815;50.950;6.920;2023-01-19T03:09:01;3.88;;;2.35;;
3601;SDS011;1815;50.950;6.920;2023-01-19T03:11:33;6.50;;;2.70;;
3601;SDS011;1815;50.950;6.920;2023-01-19T03:14:08;4.20;;;3.58;;
3601;SDS011;1815;50.950;6.920;2023-01-19T03:16:40;4.90;;;3.40;;
3601;SDS011;1815;50.950;6.920;2023-01-19T03:19:13;4.13;;;2.65;;
3601;SDS011;1815;50.950;6.920;2023-01-19T03:22:13;3.20;;;2.38;;
3601;SDS011;1815;50.950;6.920;2023-01-19T03:24:43;5.38;;;3.03;;
3601;SDS011;1815;50.950;6.920;2023-01-19T03:27:13;3.92;;;2.47;;
3601;SDS011;1815;50.950;6.920;2023-01-19T03:29:45;2.67;;;2.30;;
3601;SDS011;1815;50.950;6.920;2023-01-19T03:32:16;4.45;;;2.90;;
3601;SDS011;1815;50.950;6.920;2023-01-19T03:34:45;3.95;;;3.22;;
3601;SDS011;1815;50.950;6.920;2023-01-19T03:37:14;3.72;;;3.42;;
3601;SDS011;1815;50.950;6.920;2023-01-19T03:39:43;3.58;;;2.70;;
3601;SDS011;1815;50.950;6.920;2023-01-19T03:42:10;3.60;;;3.13;;
3601;SDS011;1815;50.950;6.920;2023-01-19T03:44:38;4.53;;;2.83;;
3601;SDS011;1815;50.950;6.920;2023-01-19T03:47:06;3.30;;;2.65;;
3601;SDS011;1815;50.950;6.920;2023-01-19T03:49:35;6.47;;;3.00;;
3601;SDS011;1815;50.950;6.920;2023-01-19T03:52:02;3.58;;;3.05;;
3601;SDS011;1815;50.950;6.920;2023-01-19T03:54:28;5.45;;;2.78;;
3601;SDS011;1815;50.950;6.920;2023-01-19T03:56:54;3.53;;;2.80;;
3601;SDS011;1815;50.950;6.920;2023-01-19T03:59:20;4.73;;;2.93;;
3601;SDS011;1815;50.950;6.920;2023-01-19T04:01:46;4.10;;;2.60;;
3601;SDS011;1815;50.950;6.920;2023-01-19T04:04:12;3.97;;;2.40;;
3601;SDS011;1815;50.950;6.920;2023-01-19T04:06:42;4.32;;;2.97;;
3601;SDS011;1815;50.950;6.920;2023-01-19T04:09:08;4.40;;;2.80;;
3601;SDS011;1815;50.950;6.920;2023-01-19T04:11:34;2.95;;;2.50;;
3601;SDS011;1815;50.950;6.920;2023-01-19T04:13:59;4.33;;;2.80;;
3601;SDS011;1815;50.950;6.920;2023-01-19T04:16:25;3.33;;;2.50;;
3601;SDS011;1815;50.950;6.920;2023-01-19T04:18:51;5.20;;;3.10;;
3601;SDS011;1815;50.950;6.920;2023-01-19T04:21:17;4.13;;;2.67;;
3601;SDS011;1815;50.950;6.920;2023-01-19T04:23:44;4.28;;;2.83;;
3601;SDS011;1815;50.950;6.920;2023-01-19T04:26:10;3.78;;;2.42;;
3601;SDS011;1815;50.950;6.920;2023-01-19T04:28:37;2.63;;;2.22;;
3601;SDS011;1815;50.950;6.920;2023-01-19T04:31:03;4.00;;;2.90;;
3601;SDS011;1815;50.950;6.920;2023-01-19T04:33:30;2.97;;;2.22;;
3601;SDS011;1815;50.950;6.920;2023-01-19T04:35:56;7.80;;;2.72;;
3601;SDS011;1815;50.950;6.920;2023-01-19T04:38:22;3.30;;;2.00;;
3601;SDS011;1815;50.950;6.920;2023-01-19T04:40:49;2.40;;;1.70;;
3601;SDS011;1815;50.950;6.920;2023-01-19T04:43:16;4.05;;;2.35;;
3601;SDS011;1815;50.950;6.920;2023-01-19T04:45:46;2.70;;;2.17;;
3601;SDS011;1815;50.950;6.920;2023-01-19T04:48:13;4.15;;;2.55;;
3601;SDS011;1815;50.950;6.920;2023-01-19T04:50:39;3.55;;;2.00;;
3601;SDS011;1815;50.950;6.920;2023-01-19T04:53:11;5.30;;;1.85;;
3601;SDS011;1815;50.950;6.920;2023-01-19T04:55:37;4.40;;;1.98;;
3601;SDS011;1815;50.950;6.920;2023-01-19T04:58:03;2.80;;;2.10;;
3601;SDS011;1815;50.950;6.920;2023-01-19T05:00:30;3.20;;;2.30;;
3601;SDS011;1815;50.950;6.920;2023-01-19T05:02:56;2.20;;;1.90;;
3601;SDS011;1815;50.950;6.920;2023-01-19T05:05:21;2.93;;;1.57;;
3601;SDS011;1815;50.950;6.920;2023-01-19T05:07:48;4.18;;;1.88;;
3601;SDS011;1815;50.950;6.920;2023-01-19T05:10:13;3.30;;;1.93;;
3601;SDS011;1815;50.950;6.920;2023-01-19T05:12:39;3.57;;;1.60;;
3601;SDS011;1815;50.950;6.920;2023-01-19T05:15:06;4.50;;;2.60;;
3601;SDS011;1815;50.950;6.920;2023-01-19T05:17:33;2.85;;;2.30;;
3601;SDS011;1815;50.950;6.920;2023-01-19T05:19:59;4.18;;;1.92;;
3601;SDS011;1815;50.950;6.920;2023-01-19T05:22:26;2.00;;;1.20;;
3601;SDS011;1815;50.950;6.920;2023-01-19T05:24:52;3.70;;;1.60;;
3601;SDS011;1815;50.950;6.920;2023-01-19T05:27:18;3.10;;;2.00;;
3601;SDS011;1815;50.950;6.920;2023-01-19T05:29:44;3.30;;;1.90;;
3601;SDS011;1815;50.950;6.920;2023-01-19T05:32:13;2.63;;;1.53;;
3601;SDS011;1815;50.950;6.920;2023-01-19T05:34:38;3.08;;;1.92;;
3601;SDS011;1815;50.950;6.920;2023-01-19T05:37:04;3.00;;;1.93;;
3601;SDS011;1815;50.950;6.920;2023-01-19T05:39:30;3.63;;;1.77;;
3601;SDS011;1815;50.950;6.920;2023-01-19T05:41:55;3.40;;;2.60;;
3601;SDS011;1815;50.950;6.920;2023-01-19T05:44:21;2.70;;;2.03;;
3601;SDS011;1815;50.950;6.920;2023-01-19T05:46:47;5.20;;;2.87;;
3601;SDS011;1815;50.950;6.920;2023-01-19T05:49:12;5.40;;;2.30;;
3601;SDS011;1815;50.950;6.920;2023-01-19T05:51:38;4.47;;;2.57;;
3601;SDS011;1815;50.950;6.920;2023-01-19T05:54:10;3.85;;;2.70;;
3601;SDS011;1815;50.950;6.920;2023-01-19T05:56:38;4.32;;;2.90;;
3601;SDS011;1815;50.950;6.920;2023-01-19T05:59:04;5.07;;;2.40;;
3601;SDS011;1815;50.950;6.920;2023-01-19T06:01:29;4.53;;;2.55;;
3601;SDS011;1815;50.950;6.920;2023-01-19T06:03:55;3.80;;;3.00;;
3601;SDS011;1815;50.950;6.920;2023-01-19T06:06:21;5.50;;;3.47;;
3601;SDS011;1815;50.950;6.920;2023-01-19T06:08:47;6.90;;;2.95;;
3601;SDS011;1815;50.950;6.920;2023-01-19T06:11:13;4.57;;;3.00;;
3601;SDS011;1815;50.950;6.920;2023-01-19T06:13:39;4.53;;;3.33;;
3601;SDS011;1815;50.950;6.920;2023-01-19T06:16:05;4.60;;;3.40;;
3601;SDS011;1815;50.950;6.920;2023-01-19T06:18:31;7.63;;;3.70;;
3601;SDS011;1815;50.950;6.920;2023-01-19T06:20:57;7.37;;;5.23;;
3601;SDS011;1815;50.950;6.920;2023-01-19T06:23:23;5.00;;;3.80;;
3601;SDS011;1815;50.950;6.920;2023-01-19T06:25:50;5.30;;;3.80;;
3601;SDS011;1815;50.950;6.920;2023-01-19T06:28:16;6.90;;;4.35;;
3601;SDS011;1815;50.950;6.920;2023-01-19T06:30:44;7.97;;;5.28;;
3601;SDS011;1815;50.950;6.920;2023-01-19T06:33:14;7.50;;;4.22;;
3601;SDS011;1815;50.950;6.920;2023-01-19T06:35:44;5.57;;;4.22;;
3601;SDS011;1815;50.950;6.920;2023-01-19T06:38:11;9.43;;;4.05;;
3601;SDS011;1815;50.950;6.920;2023-01-19T06:40:43;9.05;;;5.28;;
3601;SDS011;1815;50.950;6.920;2023-01-19T06:43:10;5.30;;;4.65;;
3601;SDS011;1815;50.950;6.920;2023-01-19T06:45:37;6.70;;;5.00;;
3601;SDS011;1815;50.950;6.920;2023-01-19T06:48:03;5.43;;;4.05;;
3601;SDS011;1815;50.950;6.920;2023-01-19T06:50:29;5.32;;;4.20;;
3601;SDS011;1815;50.950;6.920;2023-01-19T06:52:55;4.90;;;4.07;;
3601;SDS011;1815;50.950;6.920;2023-01-19T06:55:21;6.10;;;5.10;;
3601;SDS011;1815;50.950;6.920;2023-01-19T06:57:47;4.40;;;3.63;;
3601;SDS011;1815;50.950;6.920;2023-01-19T07:00:12;5.07;;;3.30;;
3601;SDS011;1815;50.950;6.920;2023-01-19T07:02:42;4.43;;;3.90;;
3601;SDS011;1815;50.950;6.920;2023-01-19T07:05:11;5.90;;;4.53;;
3601;SDS011;1815;50.950;6.920;2023-01-19T07:07:38;4.90;;;4.10;;
3601;SDS011;1815;50.950;6.920;2023-01-19T07:10:08;4.85;;;4.00;;
3601;SDS011;1815;50.950;6.920;2023-01-19T07:12:39;9.45;;;4.53;;
3601;SDS011;1815;50.950;6.920;2023-01-19T07:15:05;5.93;;;4.73;;
3601;SDS011;1815;50.950;6.920;2023-01-19T07:17:31;4.82;;;4.30;;
3601;SDS011;1815;50.950;6.920;2023-01-19T07:19:57;6.63;;;5.03;;
3601;SDS011;1815;50.950;6.920;2023-01-19T07:22:23;6.30;;;4.80;;
3601;SDS011;1815;50.950;6.920;2023-01-19T07:24:48;6.77;;;4.17;;
3601;SDS011;1815;50.950;6.920;2023-01-19T07:27:14;6.60;;;5.40;;
3601;SDS011;1815;50.950;6.920;2023-01-19T07:29:40;5.07;;;4.30;;
3601;SDS011;1815;50.950;6.920;2023-01-19T07:32:06;11.27;;;6.55;;
3601;SDS011;1815;50.950;6.920;2023-01-19T07:34:32;10.73;;;7.95;;
3601;SDS011;1815;50.950;6.920;2023-01-19T07:36:58;9.63;;;5.70;;
3601;SDS011;1815;50.950;6.920;2023-01-19T07:39:24;13.43;;;6.70;;
3601;SDS011;1815;50.950;6.920;2023-01-19T07:41:50;7.00;;;5.07;;
3601;SDS011;1815;50.950;6.920;2023-01-19T07:44:15;7.30;;;5.67;;
3601;SDS011;1815;50.950;6.920;2023-01-19T07:46:41;9.83;;;6.03;;
3601;SDS011;1815;50.950;6.920;2023-01-19T07:49:07;9.70;;;5.43;;
3601;SDS011;1815;50.950;6.920;2023-01-19T07:51:33;7.30;;;4.27;;
3601;SDS011;1815;50.950;6.920;2023-01-19T07:53:59;8.20;;;5.47;;
3601;SDS011;1815;50.950;6.920;2023-01-19T07:56:26;8.63;;;6.85;;
3601;SDS011;1815;50.950;6.920;2023-01-19T07:58:54;7.63;;;5.78;;
3601;SDS011;1815;50.950;6.920;2023-01-19T08:01:20;8.00;;;5.90;;
3601;SDS011;1815;50.950;6.920;2023-01-19T08:03:46;7.97;;;5.90;;
3601;SDS011;1815;50.950;6.920;2023-01-19T08:06:20;8.20;;;5.53;;
3601;SDS011;1815;50.950;6.920;2023-01-19T08:08:47;9.23;;;7.03;;
3601;SDS011;1815;50.950;6.920;2023-01-19T08:11:13;6.43;;;5.80;;
3601;SDS011;1815;50.950;6.920;2023-01-19T08:13:39;9.30;;;6.83;;
3601;SDS011;1815;50.950;6.920;2023-01-19T08:16:05;8.85;;;6.35;;
3601;SDS011;1815;50.950;6.920;2023-01-19T08:18:31;7.40;;;6.45;;
3601;SDS011;1815;50.950;6.920;2023-01-19T08:20:57;9.57;;;6.80;;
3601;SDS011;1815;50.950;6.920;2023-01-19T08:23:24;8.05;;;6.65;;
3601;SDS011;1815;50.950;6.920;2023-01-19T08:25:50;8.35;;;5.75;;
3601;SDS011;1815;50.950;6.920;2023-01-19T08:28:16;8.20;;;6.07;;
3601;SDS011;1815;50.950;6.920;2023-01-19T08:30:42;7.95;;;6.18;;
3601;SDS011;1815;50.950;6.920;2023-01-19T08:33:09;6.72;;;5.70;;
3601;SDS011;1815;50.950;6.920;2023-01-19T08:35:36;11.32;;;7.18;;
3601;SDS011;1815;50.950;6.920;2023-01-19T08:38:03;7.53;;;5.60;;
3601;SDS011;1815;50.950;6.920;2023-01-19T08:40:31;11.35;;;6.38;;
3601;SDS011;1815;50.950;6.920;2023-01-19T08:42:59;8.05;;;5.90;;
3601;SDS011;1815;50.950;6.920;2023-01-19T08:45:30;7.80;;;5.40;;
3601;SDS011;1815;50.950;6.920;2023-01-19T08:47:57;7.10;;;5.30;;
3601;SDS011;1815;50.950;6.920;2023-01-19T08:50:27;7.13;;;5.55;;
3601;SDS011;1815;50.950;6.920;2023-01-19T08:52:55;7.53;;;5.60;;
3601;SDS011;1815;50.950;6.920;2023-01-19T08:55:22;7.75;;;5.90;;
3601;SDS011;1815;50.950;6.920;2023-01-19T08:57:52;6.00;;;4.97;;
3601;SDS011;1815;50.950;6.920;2023-01-19T09:00:19;10.30;;;8.02;;
3601;SDS011;1815;50.950;6.920;2023-01-19T09:02:45;9.20;;;6.38;;
3601;SDS011;1815;50.950;6.920;2023-01-19T09:05:11;8.25;;;6.30;;
3601;SDS011;1815;50.950;6.920;2023-01-19T09:07:37;10.30;;;6.60;;
3601;SDS011;1815;50.950;6.920;2023-01-19T09:10:05;9.53;;;6.87;;
3601;SDS011;1815;50.950;6.920;2023-01-19T09:12:32;12.20;;;7.30;;
3601;SDS011;1815;50.950;6.920;2023-01-19T09:14:57;10.43;;;6.60;;
3601;SDS011;1815;50.950;6.920;2023-01-19T09:17:23;11.17;;;7.10;;
3601;SDS011;1815;50.950;6.920;2023-01-19T09:19:49;8.70;;;6.10;;
3601;SDS011;1815;50.950;6.920;2023-01-19T09:22:14;7.30;;;6.30;;
3601;SDS011;1815;50.950;6.920;2023-01-19T09:24:40;9.97;;;6.73;;
3601;SDS011;1815;50.950;6.920;2023-01-19T09:27:06;7.60;;;6.90;;
3601;SDS011;1815;50.950;6.920;2023-01-19T09:29:31;9.87;;;7.90;;
3601;SDS011;1815;50.950;6.920;2023-01-19T09:31:57;12.63;;;7.33;;
3601;SDS011;1815;50.950;6.920;2023-01-19T09:34:23;9.70;;;7.73;;
3601;SDS011;1815;50.950;6.920;2023-01-19T09:36:52;11.85;;;7.80;;
3601;SDS011;1815;50.950;6.920;2023-01-19T09:39:18;11.07;;;8.73;;
3601;SDS011;1815;50.950;6.920;2023-01-19T09:41:55;8.83;;;7.93;;
3601;SDS011;1815;50.950;6.920;2023-01-19T09:44:32;11.77;;;8.40;;
3601;SDS011;1815;50.950;6.920;2023-01-19T09:47:03;10.95;;;9.60;;
3601;SDS011;1815;50.950;6.920;2023-01-19T09:49:40;13.45;;;8.95;;
3601;SDS011;1815;50.950;6.920;2023-01-19T09:52:11;9.30;;;7.43;;
3601;SDS011;1815;50.950;6.920;2023-01-19T09:54:45;13.32;;;8.82;;
3601;SDS011;1815;50.950;6.920;2023-01-19T09:57:17;12.25;;;8.82;;
3601;SDS011;1815;50.950;6.920;2023-01-19T09:59:43;13.18;;;8.10;;
3601;SDS011;1815;50.950;6.920;2023-01-19T10:18:47;16.88;;;8.80;;
3601;SDS011;1815;50.950;6.920;2023-01-19T10:21:23;13.18;;;8.15;;
3601;SDS011;1815;50.950;6.920;2023-01-19T10:23:58;14.98;;;9.30;;
3601;SDS011;1815;50.950;6.920;2023-01-19T10:29:45;13.77;;;9.95;;
3601;SDS011;1815;50.950;6.920;2023-01-19T10:32:04;11.88;;;9.82;;
3601;SDS011;1815;50.950;6.920;2023-01-19T10:34:31;17.38;;;10.00;;
3601;SDS011;1815;50.950;6.920;2023-01-19T10:36:59;14.33;;;9.97;;
3601;SDS011;1815;50.950;6.920;2023-01-19T10:39:29;13.77;;;9.57;;
3601;SDS011;1815;50.950;6.920;2023-01-19T10:42:02;18.20;;;9.60;;
3601;SDS011;1815;50.950;6.920;2023-01-19T10:44:33;14.18;;;10.43;;
3601;SDS011;1815;50.950;6.920;2023-01-19T10:47:00;15.50;;;10.95;;
3601;SDS011;1815;50.950;6.920;2023-01-19T10:49:36;12.07;;;9.67;;
3601;SDS011;1815;50.950;6.920;2023-01-19T10:52:05;13.55;;;9.77;;
3601;SDS011;1815;50.950;6.920;2023-01-19T10:54:33;18.63;;;12.02;;
3601;SDS011;1815;50.950;6.920;2023-01-19T10:57:02;21.90;;;13.20;;
3601;SDS011;1815;50.950;6.920;2023-01-19T10:59:34;21.40;;;14.15;;
3601;SDS011;1815;50.950;6.920;2023-01-19T11:02:19;17.65;;;11.40;;
3601;SDS011;1815;50.950;6.920;2023-01-19T11:04:50;18.65;;;11.23;;
3601;SDS011;1815;50.950;6.920;2023-01-19T11:07:18;17.73;;;11.77;;
3601;SDS011;1815;50.950;6.920;2023-01-19T11:12:41;16.55;;;11.48;;
3601;SDS011;1815;50.950;6.920;2023-01-19T11:18:05;16.75;;;10.80;;
3601;SDS011;1815;50.950;6.920;2023-01-19T11:20:34;16.95;;;11.18;;
3601;SDS011;1815;50.950;6.920;2023-01-19T11:23:27;18.58;;;9.50;;
3601;SDS011;1815;50.950;6.920;2023-01-19T11:25:58;20.80;;;12.25;;
3601;SDS011;1815;50.950;6.920;2023-01-19T11:28:33;15.35;;;10.77;;
3601;SDS011;1815;50.950;6.920;2023-01-19T11:33:49;19.67;;;10.73;;
3601;SDS011;1815;50.950;6.920;2023-01-19T11:36:21;20.35;;;11.85;;
3601;SDS011;1815;50.950;6.920;2023-01-19T11:38:50;20.20;;;12.80;;
3601;SDS011;1815;50.950;6.920;2023-01-19T11:41:21;16.48;;;12.23;;
3601;SDS011;1815;50.950;6.920;2023-01-19T11:43:49;21.42;;;12.25;;
3601;SDS011;1815;50.950;6.920;2023-01-19T11:46:17;22.27;;;11.23;;
3601;SDS011;1815;50.950;6.920;2023-01-19T11:48:49;17.40;;;12.05;;
3601;SDS011;1815;50.950;6.920;2023-01-19T11:51:21;21.27;;;10.50;;
3601;SDS011;1815;50.950;6.920;2023-01-19T11:53:50;14.25;;;9.75;;
3601;SDS011;1815;50.950;6.920;2023-01-19T11:56:17;15.80;;;10.10;;
3601;SDS011;1815;50.950;6.920;2023-01-19T11:58:47;14.50;;;9.32;;
3601;SDS011;1815;50.950;6.920;2023-01-19T12:03:56;14.70;;;11.35;;
3601;SDS011;1815;50.950;6.920;2023-01-19T12:06:30;20.63;;;11.73;;
3601;SDS011;1815;50.950;6.920;2023-01-19T12:09:00;23.08;;;12.68;;
3601;SDS011;1815;50.950;6.920;2023-01-19T12:11:34;16.67;;;10.50;;
3601;SDS011;1815;50.950;6.920;2023-01-19T12:14:03;12.48;;;8.63;;
3601;SDS011;1815;50.950;6.920;2023-01-19T12:16:31;13.00;;;8.88;;
3601;SDS011;1815;50.950;6.920;2023-01-19T12:19:15;10.75;;;8.82;;
3601;SDS011;1815;50.950;6.920;2023-01-19T12:21:43;20.10;;;11.20;;
3601;SDS011;1815;50.950;6.920;2023-01-19T12:24:16;14.32;;;9.50;;
3601;SDS011;1815;50.950;6.920;2023-01-19T12:27:00;15.45;;;9.80;;
3601;SDS011;1815;50.950;6.920;2023-01-19T12:29:37;13.38;;;8.90;;
3601;SDS011;1815;50.950;6.920;2023-01-19T12:40:02;16.52;;;10.15;;
3601;SDS011;1815;50.950;6.920;2023-01-19T12:42:43;16.13;;;9.60;;
3601;SDS011;1815;50.950;6.920;2023-01-19T12:45:16;17.67;;;10.95;;
3601;SDS011;1815;50.950;6.920;2023-01-19T12:47:51;20.17;;;11.68;;
3601;SDS011;1815;50.950;6.920;2023-01-19T12:50:18;15.48;;;9.90;;
3601;SDS011;1815;50.950;6.920;2023-01-19T12:52:57;15.30;;;9.75;;
3601;SDS011;1815;50.950;6.920;2023-01-19T12:58:07;12.70;;;9.30;;
3601;SDS011;1815;50.950;6.920;2023-01-19T13:00:41;17.83;;;11.38;;
3601;SDS011;1815;50.950;6.920;2023-01-19T13:13:28;12.40;;;9.70;;
3601;SDS011;1815;50.950;6.920;2023-01-19T13:18:52;17.75;;;9.95;;
3601;SDS011;1815;50.950;6.920;2023-01-19T13:23:56;14.88;;;10.48;;
3601;SDS011;1815;50.950;6.920;2023-01-19T13:26:25;16.13;;;9.70;;
3601;SDS011;1815;50.950;6.920;2023-01-19T13:29:06;16.13;;;9.10;;
3601;SDS011;1815;50.950;6.920;2023-01-19T13:31:51;18.17;;;9.15;;
3601;SDS011;1815;50.950;6.920;2023-01-19T13:34:20;12.40;;;8.07;;
3601;SDS011;1815;50.950;6.920;2023-01-19T13:36:52;12.63;;;8.30;;
3601;SDS011;1815;50.950;6.920;2023-01-19T13:39:25;13.77;;;8.35;;
3601;SDS011;1815;50.950;6.920;2023-01-19T13:42:04;18.60;;;9.85;;
3601;SDS011;1815;50.950;6.920;2023-01-19T13:44:41;14.80;;;11.48;;
3601;SDS011;1815;50.950;6.920;2023-01-19T13:47:18;16.27;;;10.75;;
3601;SDS011;1815;50.950;6.920;2023-01-19T13:49:50;17.00;;;9.35;;
3601;SDS011;1815;50.950;6.920;2023-01-19T13:52:22;15.30;;;8.15;;
3601;SDS011;1815;50.950;6.920;2023-01-19T13:54:55;15.38;;;9.80;;
3601;SDS011;1815;50.950;6.920;2023-01-19T14:00:24;11.00;;;8.27;;
3601;SDS011;1815;50.950;6.920;2023-01-19T14:05:30;14.68;;;9.32;;
3601;SDS011;1815;50.950;6.920;2023-01-19T14:10:42;12.02;;;8.10;;
3601;SDS011;1815;50.950;6.920;2023-01-19T14:13:17;15.63;;;10.63;;
3601;SDS011;1815;50.950;6.920;2023-01-19T14:15:51;14.68;;;9.38;;
3601;SDS011;1815;50.950;6.920;2023-01-19T14:26:37;15.35;;;7.78;;
3601;SDS011;1815;50.950;6.920;2023-01-19T14:29:24;12.40;;;7.95;;
3601;SDS011;1815;50.950;6.920;2023-01-19T14:34:37;13.80;;;10.60;;
3601;SDS011;1815;50.950;6.920;2023-01-19T14:37:16;19.48;;;12.43;;
3601;SDS011;1815;50.950;6.920;2023-01-19T14:39:45;15.63;;;11.80;;
3601;SDS011;1815;50.950;6.920;2023-01-19T14:42:16;13.55;;;11.55;;
3601;SDS011;1815;50.950;6.920;2023-01-19T14:44:47;11.00;;;9.82;;
3601;SDS011;1815;50.950;6.920;2023-01-19T14:47:20;14.38;;;8.55;;
3601;SDS011;1815;50.950;6.920;2023-01-19T14:49:51;9.27;;;7.35;;
3601;SDS011;1815;50.950;6.920;2023-01-19T14:54:49;9.63;;;6.72;;
3601;SDS011;1815;50.950;6.920;2023-01-19T14:57:18;11.40;;;7.60;;
3601;SDS011;1815;50.950;6.920;2023-01-19T14:59:43;10.40;;;6.80;;
3601;SDS011;1815;50.950;6.920;2023-01-19T15:02:12;7.45;;;6.60;;
3601;SDS011;1815;50.950;6.920;2023-01-19T15:04:38;9.80;;;7.03;;
3601;SDS011;1815;50.950;6.920;2023-01-19T15:07:04;7.70;;;6.70;;
3601;SDS011;1815;50.950;6.920;2023-01-19T15:09:35;8.57;;;6.75;;
3601;SDS011;1815;50.950;6.920;2023-01-19T15:12:01;12.30;;;6.93;;
3601;SDS011;1815;50.950;6.920;2023-01-19T15:14:26;8.77;;;6.60;;
3601;SDS011;1815;50.950;6.920;2023-01-19T15:16:52;10.03;;;6.93;;
3601;SDS011;1815;50.950;6.920;2023-01-19T15:19:18;10.57;;;6.43;;
3601;SDS011;1815;50.950;6.920;2023-01-19T15:21:44;8.63;;;6.70;;
3601;SDS011;1815;50.950;6.920;2023-01-19T15:24:13;10.68;;;7.75;;
3601;SDS011;1815;50.950;6.920;2023-01-19T15:26:39;9.23;;;7.45;;
3601;SDS011;1815;50.950;6.920;2023-01-19T15:29:20;7.25;;;5.55;;
3601;SDS011;1815;50.950;6.920;2023-01-19T15:31:50;11.25;;;6.38;;
3601;SDS011;1815;50.950;6.920;2023-01-19T15:34:16;6.22;;;5.03;;
3601;SDS011;1815;50.950;6.920;2023-01-19T15:36:42;9.77;;;5.93;;
3601;SDS011;1815;50.950;6.920;2023-01-19T15:39:08;7.93;;;5.87;;
3601;SDS011;1815;50.950;6.920;2023-01-19T15:41:37;12.00;;;5.50;;
3601;SDS011;1815;50.950;6.920;2023-01-19T15:44:04;9.75;;;6.15;;
3601;SDS011;1815;50.950;6.920;2023-01-19T15:46:31;6.00;;;5.00;;
3601;SDS011;1815;50.950;6.920;2023-01-19T15:48:57;9.00;;;5.40;;
3601;SDS011;1815;50.950;6.920;2023-01-19T15:51:24;6.10;;;4.40;;
3601;SDS011;1815;50.950;6.920;2023-01-19T15:53:50;7.85;;;4.70;;
3601;SDS011;1815;50.950;6.920;2023-01-19T15:56:19;7.40;;;4.97;;
3601;SDS011;1815;50.950;6.920;2023-01-19T15:58:49;6.00;;;5.00;;
3601;SDS011;1815;50.950;6.920;2023-01-19T16:01:16;7.22;;;5.03;;
3601;SDS011;1815;50.950;6.920;2023-01-19T16:03:43;5.78;;;4.45;;
3601;SDS011;1815;50.950;6.920;2023-01-19T16:06:09;6.32;;;4.80;;
3601;SDS011;1815;50.950;6.920;2023-01-19T16:08:37;6.80;;;4.90;;
3601;SDS011;1815;50.950;6.920;2023-01-19T16:11:07;8.10;;;4.15;;
3601;SDS011;1815;50.950;6.920;2023-01-19T16:13:34;8.10;;;5.03;;
3601;SDS011;1815;50.950;6.920;2023-01-19T16:16:00;7.63;;;5.60;;
3601;SDS011;1815;50.950;6.920;2023-01-19T16:18:27;10.90;;;5.32;;
3601;SDS011;1815;50.950;6.920;2023-01-19T16:20:53;6.90;;;5.30;;
3601;SDS011;1815;50.950;6.920;2023-01-19T16:23:18;6.63;;;4.97;;
3601;SDS011;1815;50.950;6.920;2023-01-19T16:25:47;8.03;;;5.90;;
3601;SDS011;1815;50.950;6.920;2023-01-19T16:28:29;8.73;;;6.05;;
3601;SDS011;1815;50.950;6.920;2023-01-19T16:30:55;11.73;;;7.30;;
3601;SDS011;1815;50.950;6.920;2023-01-19T16:33:20;8.07;;;5.80;;
3601;SDS011;1815;50.950;6.920;2023-01-19T16:35:46;7.20;;;5.27;;
3601;SDS011;1815;50.950;6.920;2023-01-19T16:38:12;9.73;;;4.95;;
3601;SDS011;1815;50.950;6.920;2023-01-19T16:40:39;7.45;;;5.03;;
3601;SDS011;1815;50.950;6.920;2023-01-19T16:43:04;7.00;;;5.30;;
3601;SDS011;1815;50.950;6.920;2023-01-19T16:45:30;7.27;;;4.93;;
3601;SDS011;1815;50.950;6.920;2023-01-19T16:47:56;5.40;;;4.03;;
3601;SDS011;1815;50.950;6.920;2023-01-19T16:50:21;4.90;;;3.80;;
3601;SDS011;1815;50.950;6.920;2023-01-19T16:52:47;7.43;;;4.07;;
3601;SDS011;1815;50.950;6.920;2023-01-19T16:55:14;6.75;;;4.07;;
3601;SDS011;1815;50.950;6.920;2023-01-19T16:57:40;6.87;;;5.20;;